sensor_id;sensor_type;location;lat;lon;timestamp;P1;durP1;ratioP1;P2;durP2;ratioP2
10132;SDS011;5106;50.926;7.080;2023-07-20T00:01:25;5.75;;;2.83;;
10132;SDS011;5106;50.926;7.080;2023-07-20T00:03:50;3.65;;;2.50;;
10132;SDS011;5106;50.926;7.080;2023-07-20T00:06:22;4.88;;;2.50;;
10132;SDS011;5106;50.926;7.080;2023-07-20T00:08:52;3.40;;;2.58;;
10132;SDS011;5106;50.926;7.080;2023-07-20T00:11:19;3.67;;;2.63;;
10132;SDS011;5106;50.926;7.080;2023-07-20T00:13:58;2.58;;;2.35;;
10132;SDS011;5106;50.926;7.080;2023-07-20T00:16:24;4.32;;;2.75;;
10132;SDS011;5106;50.926;7.080;2023-07-20T00:18:49;2.55;;;2.20;;
10132;SDS011;5106;50.926;7.080;2023-07-20T00:21:15;3.38;;;2.33;;
10132;SDS011;5106;50.926;7.080;2023-07-20T00:23:40;4.78;;;2.70;;
10132;SDS011;5106;50.926;7.080;2023-07-20T00:26:06;6.35;;;2.83;;
10132;SDS011;5106;50.926;7.080;2023-07-20T00:28:32;3.80;;;2.58;;
10132;SDS011;5106;50.926;7.080;2023-07-20T00:30:59;4.82;;;2.75;;
10132;SDS011;5106;50.926;7.080;2023-07-20T00:33:25;4.30;;;2.35;;
10132;SDS011;5106;50.926;7.080;2023-07-20T00:35:50;5.57;;;2.75;;
10132;SDS011;5106;50.926;7.080;2023-07-20T00:38:16;5.75;;;2.63;;
10132;SDS011;5106;50.926;7.080;2023-07-20T00:40:41;3.25;;;2.70;;
10132;SDS011;5106;50.926;7.080;2023-07-20T00:43:07;4.35;;;2.70;;
10132;SDS011;5106;50.926;7.080;2023-07-20T00:45:33;5.43;;;3.17;;
10132;SDS011;5106;50.926;7.080;2023-07-20T00:48:01;7.95;;;3.00;;
10132;SDS011;5106;50.926;7.080;2023-07-20T00:50:29;6.20;;;2.63;;
10132;SDS011;5106;50.926;7.080;2023-07-20T00:52:55;4.03;;;2.45;;
10132;SDS011;5106;50.926;7.080;2023-07-20T00:55:22;3.97;;;2.60;;
10132;SDS011;5106;50.926;7.080;2023-07-20T00:57:49;4.43;;;2.67;;
10132;SDS011;5106;50.926;7.080;2023-07-20T01:00:15;4.93;;;2.60;;
10132;SDS011;5106;50.926;7.080;2023-07-20T01:02:41;4.15;;;2.47;;
10132;SDS011;5106;50.926;7.080;2023-07-20T01:05:07;5.03;;;2.65;;
10132;SDS011;5106;50.926;7.080;2023-07-20T01:07:38;3.85;;;2.47;;
10132;SDS011;5106;50.926;7.080;2023-07-20T01:10:20;3.67;;;2.75;;
10132;SDS011;5106;50.926;7.080;2023-07-20T01:13:07;4.85;;;2.60;;
10132;SDS011;5106;50.926;7.080;2023-07-20T01:15:35;3.05;;;2.75;;
10132;SDS011;5106;50.926;7.080;2023-07-20T01:18:01;3.55;;;2.65;;
10132;SDS011;5106;50.926;7.080;2023-07-20T01:20:29;4.03;;;2.72;;
10132;SDS011;5106;50.926;7.080;2023-07-20T01:31:36;4.38;;;2.63;;
10132;SDS011;5106;50.926;7.080;2023-07-20T01:34:02;3.97;;;2.75;;
10132;SDS011;5106;50.926;7.080;2023-07-20T01:36:30;5.72;;;2.88;;
10132;SDS011;5106;50.926;7.080;2023-07-20T01:38:59;3.83;;;2.75;;
10132;SDS011;5106;50.926;7.080;2023-07-20T01:41:25;4.30;;;3.05;;
10132;SDS011;5106;50.926;7.080;2023-07-20T01:43:51;4.53;;;2.53;;
10132;SDS011;5106;50.926;7.080;2023-07-20T01:46:16;4.32;;;2.90;;
10132;SDS011;5106;50.926;7.080;2023-07-20T01:48:42;4.35;;;2.50;;
10132;SDS011;5106;50.926;7.080;2023-07-20T01:51:08;2.83;;;2.15;;
10132;SDS011;5106;50.926;7.080;2023-07-20T01:53:33;4.05;;;2.42;;
10132;SDS011;5106;50.926;7.080;2023-07-20T01:55:59;2.70;;;2.45;;
10132;SDS011;5106;50.926;7.080;2023-07-20T01:58:25;5.05;;;2.42;;
10132;SDS011;5106;50.926;7.080;2023-07-20T02:00:51;3.35;;;2.38;;
10132;SDS011;5106;50.926;7.080;2023-07-20T02:03:16;3.92;;;2.78;;
10132;SDS011;5106;50.926;7.080;2023-07-20T02:05:42;4.07;;;2.72;;
10132;SDS011;5106;50.926;7.080;2023-07-20T02:08:08;5.03;;;2.67;;
10132;SDS011;5106;50.926;7.080;2023-07-20T02:10:34;5.07;;;2.67;;
10132;SDS011;5106;50.926;7.080;2023-07-20T02:13:00;4.88;;;2.55;;
10132;SDS011;5106;50.926;7.080;2023-07-20T02:15:26;4.45;;;2.88;;
10132;SDS011;5106;50.926;7.080;2023-07-20T02:17:52;3.47;;;2.58;;
10132;SDS011;5106;50.926;7.080;2023-07-20T02:20:18;5.32;;;2.78;;
10132;SDS011;5106;50.926;7.080;2023-07-20T02:22:44;5.00;;;2.83;;
10132;SDS011;5106;50.926;7.080;2023-07-20T02:25:10;5.82;;;2.97;;
10132;SDS011;5106;50.926;7.080;2023-07-20T02:27:36;5.53;;;3.10;;
10132;SDS011;5106;50.926;7.080;2023-07-20T02:30:02;4.78;;;3.08;;
10132;SDS011;5106;50.926;7.080;2023-07-20T02:32:29;3.97;;;2.90;;
10132;SDS011;5106;50.926;7.080;2023-07-20T02:34:55;5.72;;;2.90;;
10132;SDS011;5106;50.926;7.080;2023-07-20T02:37:21;6.90;;;3.28;;
10132;SDS011;5106;50.926;7.080;2023-07-20T02:39:46;4.72;;;2.88;;
10132;SDS011;5106;50.926;7.080;2023-07-20T02:42:12;6.55;;;3.00;;
10132;SDS011;5106;50.926;7.080;2023-07-20T02:44:38;6.20;;;2.47;;
10132;SDS011;5106;50.926;7.080;2023-07-20T02:47:04;4.38;;;2.83;;
10132;SDS011;5106;50.926;7.080;2023-07-20T02:49:29;4.57;;;2.80;;
10132;SDS011;5106;50.926;7.080;2023-07-20T02:51:55;4.15;;;2.83;;
10132;SDS011;5106;50.926;7.080;2023-07-20T02:54:20;4.22;;;2.83;;
10132;SDS011;5106;50.926;7.080;2023-07-20T02:56:46;5.32;;;3.08;;
10132;SDS011;5106;50.926;7.080;2023-07-20T02:59:12;5.43;;;3.22;;
10132;SDS011;5106;50.926;7.080;2023-07-20T03:01:37;6.28;;;3.08;;
10132;SDS011;5106;50.926;7.080;2023-07-20T03:04:03;6.15;;;3.08;;
10132;SDS011;5106;50.926;7.080;2023-07-20T03:06:29;4.80;;;3.03;;
10132;SDS011;5106;50.926;7.080;2023-07-20T03:08:54;5.65;;;3.10;;
10132;SDS011;5106;50.926;7.080;2023-07-20T03:11:20;5.40;;;3.00;;
10132;SDS011;5106;50.926;7.080;2023-07-20T03:13:46;4.55;;;3.17;;
10132;SDS011;5106;50.926;7.080;2023-07-20T03:16:13;5.13;;;3.10;;
10132;SDS011;5106;50.926;7.080;2023-07-20T03:18:40;4.68;;;3.38;;
10132;SDS011;5106;50.926;7.080;2023-07-20T03:21:09;6.72;;;2.80;;
10132;SDS011;5106;50.926;7.080;2023-07-20T03:23:39;4.88;;;3.20;;
10132;SDS011;5106;50.926;7.080;2023-07-20T03:26:05;5.22;;;2.92;;
10132;SDS011;5106;50.926;7.080;2023-07-20T03:28:33;4.47;;;3.10;;
10132;SDS011;5106;50.926;7.080;2023-07-20T03:30:59;4.55;;;2.90;;
10132;SDS011;5106;50.926;7.080;2023-07-20T03:33:25;4.95;;;2.80;;
10132;SDS011;5106;50.926;7.080;2023-07-20T03:35:52;5.30;;;3.40;;
10132;SDS011;5106;50.926;7.080;2023-07-20T03:38:18;4.47;;;3.25;;
10132;SDS011;5106;50.926;7.080;2023-07-20T03:40:55;6.78;;;3.45;;
10132;SDS011;5106;50.926;7.080;2023-07-20T03:43:22;6.43;;;3.30;;
10132;SDS011;5106;50.926;7.080;2023-07-20T03:45:49;5.55;;;3.45;;
10132;SDS011;5106;50.926;7.080;2023-07-20T03:48:16;5.22;;;3.42;;
10132;SDS011;5106;50.926;7.080;2023-07-20T03:50:46;8.60;;;3.50;;
10132;SDS011;5106;50.926;7.080;2023-07-20T03:53:12;4.50;;;3.13;;
10132;SDS011;5106;50.926;7.080;2023-07-20T03:55:38;5.05;;;3.25;;
10132;SDS011;5106;50.926;7.080;2023-07-20T03:58:05;6.15;;;3.03;;
10132;SDS011;5106;50.926;7.080;2023-07-20T04:00:31;3.90;;;2.70;;
10132;SDS011;5106;50.926;7.080;2023-07-20T04:02:57;5.50;;;3.30;;
10132;SDS011;5106;50.926;7.080;2023-07-20T04:05:26;6.65;;;3.28;;
10132;SDS011;5106;50.926;7.080;2023-07-20T04:07:51;7.30;;;3.10;;
10132;SDS011;5106;50.926;7.080;2023-07-20T04:13:42;5.63;;;3.45;;
10132;SDS011;5106;50.926;7.080;2023-07-20T04:16:08;5.82;;;3.13;;
10132;SDS011;5106;50.926;7.080;2023-07-20T04:18:33;5.35;;;2.97;;
10132;SDS011;5106;50.926;7.080;2023-07-20T04:20:59;7.78;;;3.72;;
10132;SDS011;5106;50.926;7.080;2023-07-20T04:23:25;7.03;;;3.28;;
10132;SDS011;5106;50.926;7.080;2023-07-20T04:25:50;4.40;;;3.20;;
10132;SDS011;5106;50.926;7.080;2023-07-20T04:28:16;5.85;;;2.88;;
10132;SDS011;5106;50.926;7.080;2023-07-20T04:30:42;6.45;;;3.40;;
10132;SDS011;5106;50.926;7.080;2023-07-20T04:33:08;6.38;;;3.38;;
10132;SDS011;5106;50.926;7.080;2023-07-20T04:38:11;5.88;;;3.40;;
10132;SDS011;5106;50.926;7.080;2023-07-20T04:40:37;6.03;;;3.20;;
10132;SDS011;5106;50.926;7.080;2023-07-20T04:43:02;5.93;;;3.28;;
10132;SDS011;5106;50.926;7.080;2023-07-20T04:45:28;4.63;;;3.17;;
10132;SDS011;5106;50.926;7.080;2023-07-20T04:47:54;6.38;;;3.15;;
10132;SDS011;5106;50.926;7.080;2023-07-20T04:50:22;9.30;;;3.88;;
10132;SDS011;5106;50.926;7.080;2023-07-20T04:52:50;6.88;;;3.72;;
10132;SDS011;5106;50.926;7.080;2023-07-20T04:55:15;9.18;;;4.38;;
10132;SDS011;5106;50.926;7.080;2023-07-20T04:57:41;7.75;;;3.67;;
10132;SDS011;5106;50.926;7.080;2023-07-20T05:00:07;6.88;;;4.03;;
10132;SDS011;5106;50.926;7.080;2023-07-20T05:02:35;12.38;;;4.22;;
10132;SDS011;5106;50.926;7.080;2023-07-20T05:05:01;6.55;;;3.65;;
10132;SDS011;5106;50.926;7.080;2023-07-20T05:07:26;6.05;;;3.97;;
10132;SDS011;5106;50.926;7.080;2023-07-20T05:09:52;7.13;;;3.83;;
10132;SDS011;5106;50.926;7.080;2023-07-20T05:12:17;6.82;;;4.20;;
10132;SDS011;5106;50.926;7.080;2023-07-20T05:14:43;6.45;;;3.95;;
10132;SDS011;5106;50.926;7.080;2023-07-20T05:17:09;6.47;;;4.18;;
10132;SDS011;5106;50.926;7.080;2023-07-20T05:19:34;6.22;;;4.50;;
10132;SDS011;5106;50.926;7.080;2023-07-20T05:22:00;6.47;;;4.18;;
10132;SDS011;5106;50.926;7.080;2023-07-20T05:24:25;6.78;;;4.88;;
10132;SDS011;5106;50.926;7.080;2023-07-20T05:26:51;9.75;;;4.57;;
10132;SDS011;5106;50.926;7.080;2023-07-20T05:29:16;7.72;;;4.55;;
10132;SDS011;5106;50.926;7.080;2023-07-20T05:31:45;8.93;;;5.07;;
10132;SDS011;5106;50.926;7.080;2023-07-20T05:34:23;9.10;;;4.60;;
10132;SDS011;5106;50.926;7.080;2023-07-20T05:39:37;10.70;;;4.93;;
10132;SDS011;5106;50.926;7.080;2023-07-20T05:42:02;8.50;;;4.70;;
10132;SDS011;5106;50.926;7.080;2023-07-20T05:44:54;8.20;;;5.35;;
10132;SDS011;5106;50.926;7.080;2023-07-20T05:47:20;9.77;;;5.00;;
10132;SDS011;5106;50.926;7.080;2023-07-20T05:49:45;11.40;;;6.20;;
10132;SDS011;5106;50.926;7.080;2023-07-20T05:52:13;11.45;;;5.50;;
10132;SDS011;5106;50.926;7.080;2023-07-20T05:54:39;8.52;;;5.80;;
10132;SDS011;5106;50.926;7.080;2023-07-20T05:57:05;8.30;;;6.10;;
10132;SDS011;5106;50.926;7.080;2023-07-20T05:59:30;8.50;;;5.43;;
10132;SDS011;5106;50.926;7.080;2023-07-20T06:01:56;8.50;;;5.05;;
10132;SDS011;5106;50.926;7.080;2023-07-20T06:04:22;8.75;;;5.30;;
10132;SDS011;5106;50.926;7.080;2023-07-20T06:06:48;8.98;;;5.20;;
10132;SDS011;5106;50.926;7.080;2023-07-20T06:09:14;9.93;;;6.53;;
10132;SDS011;5106;50.926;7.080;2023-07-20T06:11:39;9.95;;;6.72;;
10132;SDS011;5106;50.926;7.080;2023-07-20T06:14:05;10.02;;;7.28;;
10132;SDS011;5106;50.926;7.080;2023-07-20T06:16:31;9.50;;;6.00;;
10132;SDS011;5106;50.926;7.080;2023-07-20T06:18:56;10.07;;;6.68;;
10132;SDS011;5106;50.926;7.080;2023-07-20T06:21:22;9.13;;;6.32;;
10132;SDS011;5106;50.926;7.080;2023-07-20T06:23:48;7.88;;;6.40;;
10132;SDS011;5106;50.926;7.080;2023-07-20T06:26:13;7.43;;;5.95;;
10132;SDS011;5106;50.926;7.080;2023-07-20T06:28:39;10.43;;;6.43;;
10132;SDS011;5106;50.926;7.080;2023-07-20T06:31:04;10.13;;;7.38;;
10132;SDS011;5106;50.926;7.080;2023-07-20T06:33:30;11.13;;;6.78;;
10132;SDS011;5106;50.926;7.080;2023-07-20T06:35:56;8.23;;;7.38;;
10132;SDS011;5106;50.926;7.080;2023-07-20T06:38:22;9.77;;;7.68;;
10132;SDS011;5106;50.926;7.080;2023-07-20T06:40:51;10.35;;;7.55;;
10132;SDS011;5106;50.926;7.080;2023-07-20T06:43:17;13.52;;;7.60;;
10132;SDS011;5106;50.926;7.080;2023-07-20T06:45:43;10.57;;;6.70;;
10132;SDS011;5106;50.926;7.080;2023-07-20T06:48:09;10.65;;;6.97;;
10132;SDS011;5106;50.926;7.080;2023-07-20T06:50:34;14.75;;;8.60;;
10132;SDS011;5106;50.926;7.080;2023-07-20T06:53:00;8.57;;;7.68;;
10132;SDS011;5106;50.926;7.080;2023-07-20T06:55:29;10.07;;;7.50;;
10132;SDS011;5106;50.926;7.080;2023-07-20T06:57:54;9.75;;;7.18;;
10132;SDS011;5106;50.926;7.080;2023-07-20T07:00:22;9.25;;;6.40;;
10132;SDS011;5106;50.926;7.080;2023-07-20T07:02:52;9.30;;;6.38;;
10132;SDS011;5106;50.926;7.080;2023-07-20T07:05:18;7.97;;;6.53;;
10132;SDS011;5106;50.926;7.080;2023-07-20T07:07:44;8.00;;;5.80;;
10132;SDS011;5106;50.926;7.080;2023-07-20T07:10:09;10.10;;;5.85;;
10132;SDS011;5106;50.926;7.080;2023-07-20T07:12:35;8.88;;;6.10;;
10132;SDS011;5106;50.926;7.080;2023-07-20T07:15:01;10.77;;;6.88;;
10132;SDS011;5106;50.926;7.080;2023-07-20T07:17:31;8.75;;;6.13;;
10132;SDS011;5106;50.926;7.080;2023-07-20T07:19:57;8.68;;;6.78;;
10132;SDS011;5106;50.926;7.080;2023-07-20T07:22:23;7.97;;;6.55;;
10132;SDS011;5106;50.926;7.080;2023-07-20T07:24:49;7.97;;;6.45;;
10132;SDS011;5106;50.926;7.080;2023-07-20T07:27:15;10.25;;;6.15;;
10132;SDS011;5106;50.926;7.080;2023-07-20T07:29:46;9.75;;;6.40;;
10132;SDS011;5106;50.926;7.080;2023-07-20T07:32:12;7.90;;;6.38;;
10132;SDS011;5106;50.926;7.080;2023-07-20T07:34:37;6.72;;;5.18;;
10132;SDS011;5106;50.926;7.080;2023-07-20T07:37:04;9.75;;;5.68;;
10132;SDS011;5106;50.926;7.080;2023-07-20T07:39:29;8.82;;;6.22;;
10132;SDS011;5106;50.926;7.080;2023-07-20T07:42:03;7.57;;;5.72;;
10132;SDS011;5106;50.926;7.080;2023-07-20T07:44:29;6.25;;;5.13;;
10132;SDS011;5106;50.926;7.080;2023-07-20T07:46:55;5.28;;;4.55;;
10132;SDS011;5106;50.926;7.080;2023-07-20T07:49:20;6.97;;;5.63;;
10132;SDS011;5106;50.926;7.080;2023-07-20T07:51:52;6.18;;;4.80;;
10132;SDS011;5106;50.926;7.080;2023-07-20T07:54:23;5.10;;;4.10;;
10132;SDS011;5106;50.926;7.080;2023-07-20T07:56:59;6.53;;;4.97;;
10132;SDS011;5106;50.926;7.080;2023-07-20T07:59:25;7.07;;;4.68;;
10132;SDS011;5106;50.926;7.080;2023-07-20T08:01:50;9.73;;;5.53;;
10132;SDS011;5106;50.926;7.080;2023-07-20T08:04:16;8.90;;;5.30;;
10132;SDS011;5106;50.926;7.080;2023-07-20T08:06:41;9.27;;;4.90;;
10132;SDS011;5106;50.926;7.080;2023-07-20T08:09:07;8.10;;;5.35;;
10132;SDS011;5106;50.926;7.080;2023-07-20T08:11:33;5.90;;;4.40;;
10132;SDS011;5106;50.926;7.080;2023-07-20T08:13:59;5.50;;;4.35;;
10132;SDS011;5106;50.926;7.080;2023-07-20T08:16:28;10.65;;;4.30;;
10132;SDS011;5106;50.926;7.080;2023-07-20T08:18:54;6.97;;;4.25;;
10132;SDS011;5106;50.926;7.080;2023-07-20T08:21:23;6.22;;;3.60;;
10132;SDS011;5106;50.926;7.080;2023-07-20T08:23:49;7.65;;;3.90;;
10132;SDS011;5106;50.926;7.080;2023-07-20T08:26:14;7.00;;;3.58;;
10132;SDS011;5106;50.926;7.080;2023-07-20T08:28:40;6.38;;;3.40;;
10132;SDS011;5106;50.926;7.080;2023-07-20T08:31:07;5.40;;;3.50;;
10132;SDS011;5106;50.926;7.080;2023-07-20T08:33:38;4.40;;;3.25;;
10132;SDS011;5106;50.926;7.080;2023-07-20T08:36:04;3.78;;;3.10;;
10132;SDS011;5106;50.926;7.080;2023-07-20T08:38:33;4.00;;;3.30;;
10132;SDS011;5106;50.926;7.080;2023-07-20T08:41:23;5.18;;;3.25;;
10132;SDS011;5106;50.926;7.080;2023-07-20T08:43:57;3.63;;;3.08;;
10132;SDS011;5106;50.926;7.080;2023-07-20T08:46:26;5.07;;;2.50;;
10132;SDS011;5106;50.926;7.080;2023-07-20T08:49:02;3.55;;;2.90;;
10132;SDS011;5106;50.926;7.080;2023-07-20T08:51:37;3.75;;;2.65;;
10132;SDS011;5106;50.926;7.080;2023-07-20T08:54:22;3.47;;;2.15;;
10132;SDS011;5106;50.926;7.080;2023-07-20T09:06:26;3.50;;;1.90;;
10132;SDS011;5106;50.926;7.080;2023-07-20T09:08:52;3.35;;;2.10;;
10132;SDS011;5106;50.926;7.080;2023-07-20T09:11:18;3.65;;;2.40;;
10132;SDS011;5106;50.926;7.080;2023-07-20T09:13:46;3.67;;;2.45;;
10132;SDS011;5106;50.926;7.080;2023-07-20T09:16:15;3.22;;;2.10;;
10132;SDS011;5106;50.926;7.080;2023-07-20T09:18:41;3.60;;;2.13;;
10132;SDS011;5106;50.926;7.080;2023-07-20T09:21:09;2.75;;;1.85;;
10132;SDS011;5106;50.926;7.080;2023-07-20T09:23:47;3.40;;;1.98;;
10132;SDS011;5106;50.926;7.080;2023-07-20T09:26:14;3.13;;;1.85;;
10132;SDS011;5106;50.926;7.080;2023-07-20T09:28:47;2.10;;;1.60;;
10132;SDS011;5106;50.926;7.080;2023-07-20T09:31:18;6.88;;;3.13;;
10132;SDS011;5106;50.926;7.080;2023-07-20T09:33:45;2.85;;;2.05;;
10132;SDS011;5106;50.926;7.080;2023-07-20T09:36:12;2.28;;;1.85;;
10132;SDS011;5106;50.926;7.080;2023-07-20T09:38:39;6.30;;;2.20;;
10132;SDS011;5106;50.926;7.080;2023-07-20T09:41:07;4.13;;;2.13;;
10132;SDS011;5106;50.926;7.080;2023-07-20T09:43:37;3.92;;;2.00;;
10132;SDS011;5106;50.926;7.080;2023-07-20T09:46:04;4.03;;;2.08;;
10132;SDS011;5106;50.926;7.080;2023-07-20T09:48:30;2.40;;;2.00;;
10132;SDS011;5106;50.926;7.080;2023-07-20T09:50:56;3.72;;;2.40;;
10132;SDS011;5106;50.926;7.080;2023-07-20T09:53:24;2.42;;;1.98;;
10132;SDS011;5106;50.926;7.080;2023-07-20T09:55:50;9.48;;;2.00;;
10132;SDS011;5106;50.926;7.080;2023-07-20T09:58:17;6.68;;;1.75;;
10132;SDS011;5106;50.926;7.080;2023-07-20T10:00:43;5.28;;;2.10;;
10132;SDS011;5106;50.926;7.080;2023-07-20T10:03:19;2.50;;;1.70;;
10132;SDS011;5106;50.926;7.080;2023-07-20T10:06:08;2.67;;;1.70;;
10132;SDS011;5106;50.926;7.080;2023-07-20T10:08:34;3.00;;;1.50;;
10132;SDS011;5106;50.926;7.080;2023-07-20T10:11:07;6.50;;;1.85;;
10132;SDS011;5106;50.926;7.080;2023-07-20T10:13:45;1.90;;;1.40;;
10132;SDS011;5106;50.926;7.080;2023-07-20T10:16:15;3.97;;;1.38;;
10132;SDS011;5106;50.926;7.080;2023-07-20T10:18:51;6.10;;;1.70;;
10132;SDS011;5106;50.926;7.080;2023-07-20T10:21:26;2.70;;;1.70;;
10132;SDS011;5106;50.926;7.080;2023-07-20T10:23:54;2.33;;;1.58;;
10132;SDS011;5106;50.926;7.080;2023-07-20T10:26:21;3.40;;;1.40;;
10132;SDS011;5106;50.926;7.080;2023-07-20T10:28:47;3.42;;;2.13;;
10132;SDS011;5106;50.926;7.080;2023-07-20T10:31:13;14.88;;;2.80;;
10132;SDS011;5106;50.926;7.080;2023-07-20T10:33:40;2.00;;;1.80;;
10132;SDS011;5106;50.926;7.080;2023-07-20T10:36:06;2.58;;;1.90;;
10132;SDS011;5106;50.926;7.080;2023-07-20T10:41:20;3.17;;;1.40;;
10132;SDS011;5106;50.926;7.080;2023-07-20T10:44:08;1.58;;;1.48;;
10132;SDS011;5106;50.926;7.080;2023-07-20T10:49:04;3.92;;;1.63;;
10132;SDS011;5106;50.926;7.080;2023-07-20T10:51:38;2.00;;;1.52;;
10132;SDS011;5106;50.926;7.080;2023-07-20T10:54:50;1.40;;;1.30;;
10132;SDS011;5106;50.926;7.080;2023-07-20T10:56:57;3.15;;;1.60;;
10132;SDS011;5106;50.926;7.080;2023-07-20T10:59:48;2.00;;;1.40;;
10132;SDS011;5106;50.926;7.080;2023-07-20T11:02:17;1.92;;;1.40;;
10132;SDS011;5106;50.926;7.080;2023-07-20T11:04:45;1.92;;;1.42;;
10132;SDS011;5106;50.926;7.080;2023-07-20T11:07:15;2.55;;;1.67;;
10132;SDS011;5106;50.926;7.080;2023-07-20T11:09:42;1.58;;;1.20;;
10132;SDS011;5106;50.926;7.080;2023-07-20T11:14:43;1.85;;;1.25;;
10132;SDS011;5106;50.926;7.080;2023-07-20T11:17:18;6.20;;;1.75;;
10132;SDS011;5106;50.926;7.080;2023-07-20T11:19:47;2.45;;;1.50;;
10132;SDS011;5106;50.926;7.080;2023-07-20T11:22:15;3.08;;;1.50;;
10132;SDS011;5106;50.926;7.080;2023-07-20T11:24:42;1.50;;;1.27;;
10132;SDS011;5106;50.926;7.080;2023-07-20T11:27:08;2.28;;;1.42;;
10132;SDS011;5106;50.926;7.080;2023-07-20T11:29:34;1.73;;;1.33;;
10132;SDS011;5106;50.926;7.080;2023-07-20T11:32:00;1.73;;;1.20;;
10132;SDS011;5106;50.926;7.080;2023-07-20T11:34:29;1.30;;;1.20;;
10132;SDS011;5106;50.926;7.080;2023-07-20T11:36:55;2.08;;;1.20;;
10132;SDS011;5106;50.926;7.080;2023-07-20T11:39:22;1.60;;;1.30;;
10132;SDS011;5106;50.926;7.080;2023-07-20T11:41:54;1.63;;;1.30;;
10132;SDS011;5106;50.926;7.080;2023-07-20T11:44:22;1.67;;;1.20;;
10132;SDS011;5106;50.926;7.080;2023-07-20T11:47:02;1.35;;;1.13;;
10132;SDS011;5106;50.926;7.080;2023-07-20T11:49:29;1.85;;;1.50;;
10132;SDS011;5106;50.926;7.080;2023-07-20T11:51:56;1.65;;;1.17;;
10132;SDS011;5106;50.926;7.080;2023-07-20T11:54:23;2.33;;;1.35;;
10132;SDS011;5106;50.926;7.080;2023-07-20T11:56:53;1.40;;;1.23;;
10132;SDS011;5106;50.926;7.080;2023-07-20T11:59:19;2.40;;;1.30;;
10132;SDS011;5106;50.926;7.080;2023-07-20T12:01:45;3.10;;;1.17;;
10132;SDS011;5106;50.926;7.080;2023-07-20T12:04:11;1.27;;;1.10;;
10132;SDS011;5106;50.926;7.080;2023-07-20T12:06:37;2.55;;;1.10;;
10132;SDS011;5106;50.926;7.080;2023-07-20T12:09:03;1.40;;;1.10;;
10132;SDS011;5106;50.926;7.080;2023-07-20T12:11:35;3.58;;;1.05;;
10132;SDS011;5106;50.926;7.080;2023-07-20T12:14:04;1.10;;;1.00;;
10132;SDS011;5106;50.926;7.080;2023-07-20T12:16:32;1.98;;;1.15;;
10132;SDS011;5106;50.926;7.080;2023-07-20T12:19:03;2.08;;;1.20;;
10132;SDS011;5106;50.926;7.080;2023-07-20T12:21:38;1.83;;;1.13;;
10132;SDS011;5106;50.926;7.080;2023-07-20T12:24:07;1.65;;;1.08;;
10132;SDS011;5106;50.926;7.080;2023-07-20T12:26:36;2.15;;;1.05;;
10132;SDS011;5106;50.926;7.080;2023-07-20T12:29:02;4.03;;;1.60;;
10132;SDS011;5106;50.926;7.080;2023-07-20T12:31:33;1.73;;;1.13;;
10132;SDS011;5106;50.926;7.080;2023-07-20T12:34:01;2.45;;;1.27;;
10132;SDS011;5106;50.926;7.080;2023-07-20T12:36:27;2.58;;;1.73;;
10132;SDS011;5106;50.926;7.080;2023-07-20T12:38:52;2.80;;;1.00;;
10132;SDS011;5106;50.926;7.080;2023-07-20T12:41:18;2.88;;;1.48;;
10132;SDS011;5106;50.926;7.080;2023-07-20T12:43:45;1.42;;;1.33;;
10132;SDS011;5106;50.926;7.080;2023-07-20T12:46:11;1.70;;;1.20;;
10132;SDS011;5106;50.926;7.080;2023-07-20T12:48:38;1.23;;;1.10;;
10132;SDS011;5106;50.926;7.080;2023-07-20T12:51:06;1.48;;;1.15;;
10132;SDS011;5106;50.926;7.080;2023-07-20T12:53:32;1.42;;;1.00;;
10132;SDS011;5106;50.926;7.080;2023-07-20T12:56:01;2.50;;;1.33;;
10132;SDS011;5106;50.926;7.080;2023-07-20T12:58:27;2.33;;;0.90;;
10132;SDS011;5106;50.926;7.080;2023-07-20T13:00:53;1.67;;;1.02;;
10132;SDS011;5106;50.926;7.080;2023-07-20T13:03:19;1.20;;;1.00;;
10132;SDS011;5106;50.926;7.080;2023-07-20T13:05:48;1.40;;;1.02;;
10132;SDS011;5106;50.926;7.080;2023-07-20T13:08:14;3.05;;;1.30;;
10132;SDS011;5106;50.926;7.080;2023-07-20T13:10:39;2.65;;;1.02;;
10132;SDS011;5106;50.926;7.080;2023-07-20T13:13:05;1.40;;;1.30;;
10132;SDS011;5106;50.926;7.080;2023-07-20T13:15:32;1.10;;;1.00;;
10132;SDS011;5106;50.926;7.080;2023-07-20T13:18:05;1.88;;;1.20;;
10132;SDS011;5106;50.926;7.080;2023-07-20T13:20:31;1.27;;;1.17;;
10132;SDS011;5106;50.926;7.080;2023-07-20T13:22:56;2.30;;;1.30;;
10132;SDS011;5106;50.926;7.080;2023-07-20T13:25:22;1.73;;;1.10;;
10132;SDS011;5106;50.926;7.080;2023-07-20T13:27:47;1.65;;;1.15;;
10132;SDS011;5106;50.926;7.080;2023-07-20T13:30:13;1.45;;;0.95;;
10132;SDS011;5106;50.926;7.080;2023-07-20T13:32:42;1.92;;;1.13;;
10132;SDS011;5106;50.926;7.080;2023-07-20T13:35:08;1.13;;;0.90;;
10132;SDS011;5106;50.926;7.080;2023-07-20T13:37:34;1.20;;;1.00;;
10132;SDS011;5106;50.926;7.080;2023-07-20T13:40:00;2.08;;;1.02;;
10132;SDS011;5106;50.926;7.080;2023-07-20T13:42:26;1.40;;;1.00;;
10132;SDS011;5106;50.926;7.080;2023-07-20T13:44:51;1.52;;;1.10;;
10132;SDS011;5106;50.926;7.080;2023-07-20T13:47:17;3.60;;;1.45;;
10132;SDS011;5106;50.926;7.080;2023-07-20T13:49:43;3.38;;;1.10;;
10132;SDS011;5106;50.926;7.080;2023-07-20T13:52:09;1.00;;;0.90;;
10132;SDS011;5106;50.926;7.080;2023-07-20T13:54:34;1.98;;;1.13;;
10132;SDS011;5106;50.926;7.080;2023-07-20T13:57:00;1.98;;;1.13;;
10132;SDS011;5106;50.926;7.080;2023-07-20T13:59:25;1.63;;;1.02;;
10132;SDS011;5106;50.926;7.080;2023-07-20T14:01:51;1.38;;;0.98;;
10132;SDS011;5106;50.926;7.080;2023-07-20T14:04:16;2.45;;;1.10;;
10132;SDS011;5106;50.926;7.080;2023-07-20T14:06:42;1.15;;;1.05;;
10132;SDS011;5106;50.926;7.080;2023-07-20T14:09:08;1.40;;;1.23;;
10132;SDS011;5106;50.926;7.080;2023-07-20T14:11:34;2.30;;;1.48;;
10132;SDS011;5106;50.926;7.080;2023-07-20T14:14:00;2.53;;;1.15;;
10132;SDS011;5106;50.926;7.080;2023-07-20T14:16:25;2.05;;;1.23;;
10132;SDS011;5106;50.926;7.080;2023-07-20T14:18:51;2.35;;;1.15;;
10132;SDS011;5106;50.926;7.080;2023-07-20T14:21:18;3.25;;;1.30;;
10132;SDS011;5106;50.926;7.080;2023-07-20T14:23:46;2.00;;;1.20;;
10132;SDS011;5106;50.926;7.080;2023-07-20T14:26:14;1.48;;;1.17;;
10132;SDS011;5106;50.926;7.080;2023-07-20T14:28:40;1.80;;;1.38;;
10132;SDS011;5106;50.926;7.080;2023-07-20T14:31:06;1.35;;;1.02;;
10132;SDS011;5106;50.926;7.080;2023-07-20T14:33:32;1.38;;;1.25;;
10132;SDS011;5106;50.926;7.080;2023-07-20T14:35:58;2.10;;;1.23;;
10132;SDS011;5106;50.926;7.080;2023-07-20T14:38:24;2.55;;;1.35;;
10132;SDS011;5106;50.926;7.080;2023-07-20T14:40:50;1.40;;;1.30;;
10132;SDS011;5106;50.926;7.080;2023-07-20T14:43:16;1.40;;;1.00;;
10132;SDS011;5106;50.926;7.080;2023-07-20T14:45:42;1.20;;;1.10;;
10132;SDS011;5106;50.926;7.080;2023-07-20T14:48:07;1.52;;;1.20;;
10132;SDS011;5106;50.926;7.080;2023-07-20T14:50:33;1.40;;;1.17;;
10132;SDS011;5106;50.926;7.080;2023-07-20T14:52:59;1.60;;;1.00;;
10132;SDS011;5106;50.926;7.080;2023-07-20T14:55:25;1.00;;;0.90;;
10132;SDS011;5106;50.926;7.080;2023-07-20T14:57:51;3.15;;;1.38;;
10132;SDS011;5106;50.926;7.080;2023-07-20T15:00:17;2.45;;;1.10;;
10132;SDS011;5106;50.926;7.080;2023-07-20T15:02:43;1.25;;;1.00;;
10132;SDS011;5106;50.926;7.080;2023-07-20T15:05:09;2.60;;;1.30;;
10132;SDS011;5106;50.926;7.080;2023-07-20T15:07:35;2.08;;;0.98;;
10132;SDS011;5106;50.926;7.080;2023-07-20T15:10:02;2.10;;;1.25;;
10132;SDS011;5106;50.926;7.080;2023-07-20T15:12:28;2.10;;;1.10;;
10132;SDS011;5106;50.926;7.080;2023-07-20T15:15:04;3.05;;;1.30;;
10132;SDS011;5106;50.926;7.080;2023-07-20T15:17:37;2.95;;;1.20;;
10132;SDS011;5106;50.926;7.080;2023-07-20T15:20:06;5.50;;;1.13;;
10132;SDS011;5106;50.926;7.080;2023-07-20T15:22:33;2.63;;;1.27;;
10132;SDS011;5106;50.926;7.080;2023-07-20T15:25:00;1.83;;;1.20;;
10132;SDS011;5106;50.926;7.080;2023-07-20T15:27:29;1.63;;;1.23;;
10132;SDS011;5106;50.926;7.080;2023-07-20T15:29:55;4.45;;;1.48;;
10132;SDS011;5106;50.926;7.080;2023-07-20T15:32:20;2.28;;;1.35;;
10132;SDS011;5106;50.926;7.080;2023-07-20T15:34:46;2.25;;;1.30;;
10132;SDS011;5106;50.926;7.080;2023-07-20T15:37:12;3.00;;;1.30;;